Time;durP1;ratioP1;P1;durP2;ratioP2;P2;SDS_P1;SDS_P2;PMS_P1;PMS_P2;Temp;Humidity;BMP_temperature;BMP_pressure;BME280_temperature;BME280_humidity;BME280_pressure;Samples;Min_cycle;Max_cycle;Signal;HPM_P1;HPM_P2
2022/10/24 00:01:24;;;;;;;62.92;38.20;;;;;;;19.60;77.26;101712.22;5000478;28;20524;-81
2022/10/24 00:03:51;;;;;;;73.00;37.92;;;;;;;18.95;76.91;101605.34;4999221;28;20557;-81
2022/10/24 00:06:19;;;;;;;67.20;41.58;;;;;;;19.67;77.09;101728.56;5002799;28;20068;-83
2022/10/24 00:08:46;;;;;;;71.78;42.33;;;;;;;19.43;77.13;101695.22;5000917;28;20061;-84
2022/10/24 00:11:19;;;;;;;70.82;41.90;;;;;;;19.52;77.51;101717.63;4998620;28;20503;-82
2022/10/24 00:13:50;;;;;;;75.13;43.90;;;;;;;19.27;76.86;101673.66;4997976;28;20046;-83
2022/10/24 00:16:20;;;;;;;89.20;44.45;;;;;;;19.51;77.00;101718.59;4981349;28;20111;-84
2022/10/24 00:18:47;;;;;;;85.72;43.92;;;;;;;19.58;76.86;101733.09;4998514;28;20135;-84
2022/10/24 00:21:16;;;;;;;87.15;45.25;;;;;;;19.37;76.88;101698.59;4984281;28;20069;-83
2022/10/24 00:23:42;;;;;;;85.60;45.20;;;;;;;19.30;76.64;101694.06;4983099;28;20519;-81
2022/10/24 00:26:10;;;;;;;86.72;46.10;;;;;;;19.52;76.61;101739.16;4997305;28;20625;-83
2022/10/24 00:28:41;;;;;;;81.38;46.10;;;;;;;18.95;76.58;101651.09;4998896;28;20148;-83
2022/10/24 00:31:13;;;;;;;85.57;47.33;;;;;;;19.20;76.79;101676.22;4999178;28;20518;-82
2022/10/24 00:33:44;;;;;;;88.55;46.78;;;;;;;19.34;76.76;101700.75;4999399;28;20049;-82
2022/10/24 00:36:14;;;;;;;83.60;47.30;;;;;;;19.55;76.37;101735.28;4999041;28;20081;-84
2022/10/24 00:38:41;;;;;;;85.75;47.30;;;;;;;19.39;76.47;101710.03;4978214;28;20050;-84
2022/10/24 00:41:13;;;;;;;79.25;45.97;;;;;;;19.37;76.47;101720.13;4977804;28;20594;-83
2022/10/24 00:43:42;;;;;;;80.60;46.92;;;;;;;19.48;76.16;101726.19;4979193;28;20307;-82
2022/10/24 00:46:09;;;;;;;78.10;44.03;;;;;;;19.55;76.17;101735.28;4979422;28;20361;-82
2022/10/24 00:48:40;;;;;;;81.40;45.72;;;;;;;19.50;76.51;101732.25;4982812;28;20600;-83
2022/10/24 00:51:20;;;;;;;71.03;42.85;;;;;;;19.41;76.18;101712.56;4997942;28;20176;-83
2022/10/24 00:53:52;;;;;;;85.10;46.17;;;;;;;19.13;76.04;101661.72;4999023;28;20592;-82
2022/10/24 00:56:24;;;;;;;75.50;41.47;;;;;;;19.34;76.12;101680.06;4999593;28;20602;-82
2022/10/24 00:58:55;;;;;;;85.90;42.88;;;;;;;19.00;76.21;101623.69;4999330;28;20057;-84
2022/10/24 01:01:24;;;;;;;81.88;45.03;;;;;;;18.84;76.16;101608.38;4998809;28;20516;-83
2022/10/24 01:03:51;;;;;;;78.45;45.80;;;;;;;19.40;76.55;101716.25;5004399;28;20061;-81
2022/10/24 01:06:39;;;;;;;71.40;42.67;;;;;;;19.36;76.59;101699.59;5015367;28;20523;-83
2022/10/24 01:09:21;;;;;;;82.38;44.40;;;;;;;19.37;76.20;101705.81;5014820;28;20428;-84
2022/10/24 01:11:51;;;;;;;79.25;42.53;;;;;;;19.38;76.41;101715.59;4999672;28;20303;-84
2022/10/24 01:14:28;;;;;;;78.47;42.92;;;;;;;19.19;76.11;101662.91;5014251;28;20522;-82
2022/10/24 01:17:13;;;;;;;83.35;43.72;;;;;;;19.48;76.17;101702.78;5013977;28;20050;-84
2022/10/24 01:19:48;;;;;;;82.78;43.00;;;;;;;19.40;76.10;101690.19;5000786;28;20237;-83
2022/10/24 01:22:27;;;;;;;65.97;39.92;;;;;;;18.98;76.37;101631.09;5014672;28;20399;-83
2022/10/24 01:25:12;;;;;;;69.93;41.40;;;;;;;19.53;75.92;101686.13;4997985;28;20064;-83
2022/10/24 01:27:45;;;;;;;85.97;43.83;;;;;;;19.42;76.01;101688.16;4995409;28;20135;-83
2022/10/24 01:30:16;;;;;;;83.60;41.70;;;;;;;19.33;76.24;101678.38;4993208;28;20091;-83
2022/10/24 01:33:05;;;;;;;80.85;46.33;;;;;;;19.32;76.55;101665.94;4998969;28;20057;-83
2022/10/24 01:35:57;;;;;;;85.78;47.33;;;;;;;19.31;76.58;101666.09;4995532;28;20176;-84
2022/10/24 01:38:56;;;;;;;77.82;43.05;;;;;;;19.20;76.69;101645.75;4993912;28;20057;-84
2022/10/24 01:41:27;;;;;;;82.28;43.80;;;;;;;19.10;76.81;101645.06;4976171;28;20143;-83
2022/10/24 01:44:12;;;;;;;81.35;44.72;;;;;;;19.04;76.94;101648.44;4995795;28;20417;-82
2022/10/24 01:46:59;;;;;;;82.45;46.97;;;;;;;19.13;77.34;101667.13;4994311;28;20656;-84
2022/10/24 01:49:31;;;;;;;79.78;45.28;;;;;;;19.07;77.60;101666.94;5002433;28;20060;-84
2022/10/24 01:52:03;;;;;;;74.38;44.63;;;;;;;18.02;77.29;101500.63;4999955;28;20065;-83
2022/10/24 01:54:31;;;;;;;78.20;46.30;;;;;;;18.94;77.34;101648.59;4980683;28;20049;-80
2022/10/24 01:57:01;;;;;;;82.25;42.85;;;;;;;18.96;77.65;101660.88;4981672;28;20064;-83
2022/10/24 01:59:28;;;;;;;87.00;45.75;;;;;;;18.98;77.70;101664.25;4980577;28;20049;-83
2022/10/24 02:02:47;;;;;;;79.28;44.22;;;;;;;18.72;77.18;101609.69;4993784;28;20061;-84
2022/10/24 02:05:19;;;;;;;84.45;44.22;;;;;;;18.99;77.51;101655.16;4938434;28;20064;-83
2022/10/24 02:07:50;;;;;;;76.70;44.40;;;;;;;19.02;77.45;101662.03;4993928;28;20442;-83
2022/10/24 02:10:25;;;;;;;89.93;45.75;;;;;;;18.91;77.16;101640.81;4996212;28;20046;-84
2022/10/24 02:13:14;;;;;;;83.65;45.30;;;;;;;19.00;77.66;101666.75;4999480;28;20045;-84
2022/10/24 02:15:47;;;;;;;95.90;49.15;;;;;;;18.61;77.32;101586.63;4978834;28;20057;-83
2022/10/24 02:18:14;;;;;;;90.25;47.03;;;;;;;19.03;77.09;101652.97;4980365;28;20057;-83
2022/10/24 02:20:58;;;;;;;90.18;50.88;;;;;;;17.69;76.40;101433.38;4978114;28;20467;-82
2022/10/24 02:23:37;;;;;;;89.55;50.03;;;;;;;19.01;77.36;101655.00;4997671;28;20212;-82
2022/10/24 02:26:09;;;;;;;81.85;47.15;;;;;;;18.95;77.38;101647.56;4978427;28;20079;-83
2022/10/24 02:28:42;;;;;;;83.57;48.05;;;;;;;18.94;77.46;101630.59;4977344;28;20088;-84
2022/10/24 02:31:20;;;;;;;88.07;48.78;;;;;;;18.73;77.26;101597.91;4996790;28;20436;-84
2022/10/24 02:33:48;;;;;;;86.95;48.38;;;;;;;17.47;77.50;101399.88;4997085;28;20837;-84
2022/10/24 02:36:18;;;;;;;92.20;46.38;;;;;;;18.77;77.88;101618.97;4995733;28;20052;-85
2022/10/24 02:38:48;;;;;;;90.30;49.40;;;;;;;18.06;77.89;101515.44;4996448;28;20059;-85
2022/10/24 02:41:24;;;;;;;87.60;47.50;;;;;;;18.55;78.18;101593.50;4997551;28;20049;-84
2022/10/24 02:43:53;;;;;;;83.65;46.65;;;;;;;18.71;77.89;101619.56;4981237;28;20046;-84
2022/10/24 02:46:21;;;;;;;83.55;48.60;;;;;;;18.48;78.25;101584.41;4995296;28;20209;-84
2022/10/24 02:48:56;;;;;;;86.43;45.33;;;;;;;18.71;78.40;101602.59;4995582;28;20072;-83
2022/10/24 02:51:27;;;;;;;89.18;46.85;;;;;;;18.64;78.40;101591.69;4996062;28;20256;-81
2022/10/24 02:54:01;;;;;;;91.88;45.85;;;;;;;18.67;77.89;101579.75;4995624;28;20308;-83
2022/10/24 02:56:28;;;;;;;91.43;46.60;;;;;;;18.69;78.46;101588.47;4994851;28;20054;-82
2022/10/24 02:58:55;;;;;;;84.15;45.03;;;;;;;18.79;78.26;101616.13;4995595;28;20061;-83
2022/10/24 03:01:25;;;;;;;94.82;48.45;;;;;;;18.43;78.23;101557.19;5000901;28;20610;-84
2022/10/24 03:03:52;;;;;;;84.22;46.97;;;;;;;18.36;78.17;101550.78;4984604;28;20061;-82
2022/10/24 03:06:18;;;;;;;82.40;46.15;;;;;;;18.75;78.25;101604.81;4981019;28;20140;-81
2022/10/24 03:08:48;;;;;;;83.03;44.83;;;;;;;18.57;77.92;101577.22;4999279;28;20452;-84
2022/10/24 03:11:14;;;;;;;94.13;47.25;;;;;;;18.78;77.94;101603.66;4999056;28;20137;-81
2022/10/24 03:13:44;;;;;;;78.35;44.38;;;;;;;18.66;77.91;101586.97;4984653;28;20160;-84
2022/10/24 03:16:11;;;;;;;83.60;45.78;;;;;;;18.74;77.97;101607.69;4982843;28;20053;-85
2022/10/24 03:18:40;;;;;;;79.68;44.60;;;;;;;18.29;77.63;101539.00;4981437;28;20057;-83
2022/10/24 03:21:07;;;;;;;79.15;45.42;;;;;;;18.63;77.72;101595.38;5000135;28;20080;-85
2022/10/24 03:23:44;;;;;;;80.35;45.78;;;;;;;18.17;77.86;101530.41;4997097;28;20222;-82
2022/10/24 03:26:10;;;;;;;84.20;46.10;;;;;;;18.70;77.61;101620.59;4969409;28;20053;-82
2022/10/24 03:28:38;;;;;;;84.20;46.33;;;;;;;18.72;77.67;101612.38;4998580;28;20127;-80
2022/10/24 03:31:05;;;;;;;93.13;45.28;;;;;;;18.73;77.40;101609.50;4983918;28;20049;-83
2022/10/24 03:33:32;;;;;;;91.68;48.15;;;;;;;17.87;77.46;101468.19;4997920;28;20479;-83
2022/10/24 03:35:59;;;;;;;92.57;46.08;;;;;;;18.55;77.62;101587.28;5000133;28;20055;-83
2022/10/24 03:38:29;;;;;;;97.43;45.75;;;;;;;18.46;77.42;101570.28;4994767;28;20056;-83
2022/10/24 03:40:56;;;;;;;85.93;47.50;;;;;;;18.63;77.48;101613.34;4978287;28;20890;-82
2022/10/24 03:43:23;;;;;;;86.20;44.72;;;;;;;18.36;77.46;101580.34;4982073;28;20481;-83
2022/10/24 03:45:53;;;;;;;84.07;43.97;;;;;;;18.58;77.62;101619.22;4996885;28;20103;-83
2022/10/24 03:48:21;;;;;;;87.57;46.95;;;;;;;18.45;77.84;101595.50;4980820;28;20046;-83
2022/10/24 03:50:48;;;;;;;78.68;45.28;;;;;;;18.25;77.63;101565.34;4998908;28;20045;-83
2022/10/24 03:53:15;;;;;;;81.82;43.70;;;;;;;18.46;77.49;101588.28;4998875;28;20063;-82
2022/10/24 03:55:42;;;;;;;87.82;45.38;;;;;;;18.15;77.63;101537.78;4998681;28;20511;-82
2022/10/24 03:58:09;;;;;;;84.80;42.45;;;;;;;18.49;77.43;101602.22;4981795;28;20231;-83
2022/10/24 04:00:40;;;;;;;81.38;45.38;;;;;;;18.32;77.84;101587.06;5000896;28;20053;-81
2022/10/24 04:03:08;;;;;;;87.15;45.10;;;;;;;18.40;77.50;101594.28;4996970;28;20256;-83
2022/10/24 04:05:36;;;;;;;87.47;45.95;;;;;;;17.93;77.35;101517.72;4998251;28;20697;-83
2022/10/24 04:08:07;;;;;;;82.90;44.60;;;;;;;18.46;77.47;101602.56;4998272;28;20430;-83
2022/10/24 04:10:34;;;;;;;84.40;43.78;;;;;;;18.22;77.75;101575.59;4996596;28;20061;-83
2022/10/24 04:13:01;;;;;;;83.55;44.53;;;;;;;18.22;77.69;101591.72;4985974;28;20052;-84
2022/10/24 04:15:27;;;;;;;86.10;42.85;;;;;;;18.31;77.54;101612.25;4997428;28;20287;-81
2022/10/24 04:17:54;;;;;;;87.68;46.60;;;;;;;18.27;77.44;101602.81;4982333;28;20073;-82
2022/10/24 04:20:22;;;;;;;80.70;44.10;;;;;;;18.17;77.56;101570.72;4983300;28;20421;-83
2022/10/24 04:22:49;;;;;;;86.57;43.90;;;;;;;17.67;76.55;101480.16;4999824;28;20167;-81
2022/10/24 04:25:16;;;;;;;76.03;45.25;;;;;;;17.78;77.20;101530.91;5003803;28;20158;-83
2022/10/24 04:27:44;;;;;;;78.40;43.67;;;;;;;17.52;77.31;101501.41;5001443;28;20387;-83
2022/10/24 04:30:13;;;;;;;78.65;42.10;;;;;;;18.20;77.45;101623.28;4999661;28;20163;-82
2022/10/24 04:32:42;;;;;;;91.00;44.75;;;;;;;17.91;77.70;101585.06;4999115;28;20155;-83
2022/10/24 04:35:10;;;;;;;100.05;44.10;;;;;;;18.13;77.34;101629.31;5000349;28;20535;-82
2022/10/24 04:37:37;;;;;;;80.00;43.63;;;;;;;18.10;77.47;101623.41;4998193;28;20071;-83
2022/10/24 04:40:04;;;;;;;80.07;44.05;;;;;;;18.27;76.97;101635.09;4983143;28;20162;-82
2022/10/24 04:42:31;;;;;;;90.43;41.45;;;;;;;18.07;77.42;101619.22;5000574;28;20053;-83
2022/10/24 04:44:58;;;;;;;78.28;43.15;;;;;;;18.03;77.75;101636.63;5027779;28;20401;-79
2022/10/24 04:47:24;;;;;;;79.97;44.63;;;;;;;18.00;77.98;101626.22;5011093;28;20056;-80
2022/10/24 04:49:54;;;;;;;79.57;43.28;;;;;;;18.01;78.17;101641.38;5010088;28;20364;-82
2022/10/24 04:52:21;;;;;;;79.88;43.13;;;;;;;17.92;78.22;101613.59;4998055;28;20559;-81
2022/10/24 04:54:47;;;;;;;78.63;42.17;;;;;;;17.99;78.20;101621.88;4996600;28;20045;-81
2022/10/24 04:57:14;;;;;;;79.90;39.08;;;;;;;17.67;78.48;101576.81;5014932;28;20084;-83
2022/10/24 04:59:41;;;;;;;72.93;40.13;;;;;;;17.45;78.46;101535.25;5012568;28;20083;-82
2022/10/24 05:02:08;;;;;;;63.78;35.53;;;;;;;17.80;78.99;101592.53;5014920;28;20156;-80
2022/10/24 05:04:37;;;;;;;58.17;35.50;;;;;;;17.80;79.37;101597.91;5003683;28;20095;-82
2022/10/24 05:07:06;;;;;;;54.90;34.63;;;;;;;17.87;79.33;101618.59;5016376;28;20053;-82
2022/10/24 05:09:36;;;;;;;56.65;34.45;;;;;;;17.89;79.57;101629.22;5000639;28;20064;-82
2022/10/24 05:12:04;;;;;;;60.28;34.20;;;;;;;17.71;79.21;101591.63;5000534;28;20571;-81
2022/10/24 05:14:33;;;;;;;60.65;34.50;;;;;;;17.73;79.81;101593.16;5013803;28;20525;-82
2022/10/24 05:17:02;;;;;;;;;;;;;;;17.85;79.64;101611.72;5017450;28;20049;-81
2022/10/24 05:19:29;;;;;;;61.83;33.15;;;;;;;17.90;79.82;101609.38;5018805;28;20019;-84
2022/10/24 05:21:56;;;;;;;53.00;32.75;;;;;;;17.78;79.51;101583.78;5015130;28;20441;-82
2022/10/24 05:24:23;;;;;;;76.72;35.42;;;;;;;17.78;79.20;101583.78;5016705;28;20076;-82
2022/10/24 05:26:50;;;;;;;58.58;34.58;;;;;;;17.80;79.21;101576.41;4998830;28;20049;-84
2022/10/24 05:29:17;;;;;;;52.75;31.80;;;;;;;17.65;79.31;101552.84;4997042;28;20277;-83
2022/10/24 05:31:44;;;;;;;61.42;31.90;;;;;;;17.93;79.13;101609.06;4981625;28;20358;-82
2022/10/24 05:34:10;;;;;;;53.15;31.85;;;;;;;17.79;78.88;101583.63;4999466;28;20084;-82
2022/10/24 05:36:37;;;;;;;60.92;35.35;;;;;;;17.89;79.48;101616.63;4999089;28;20061;-82
2022/10/24 05:39:09;;;;;;;55.47;34.20;;;;;;;17.90;79.50;101620.13;4982336;28;20667;-84
2022/10/24 05:41:35;;;;;;;53.08;34.28;;;;;;;17.91;79.95;101622.66;4997050;28;20180;-79
2022/10/24 05:44:02;;;;;;;56.38;31.42;;;;;;;17.91;79.59;101621.81;4997318;28;20050;-84
2022/10/24 05:46:29;;;;;;;52.85;31.60;;;;;;;17.77;79.53;101598.19;4997517;28;20305;-82
2022/10/24 05:48:59;;;;;;;60.17;33.28;;;;;;;17.67;79.65;101593.81;4988087;28;20042;-82
2022/10/24 05:51:27;;;;;;;50.28;33.00;;;;;;;17.88;79.81;101622.97;4994138;28;20064;-83
2022/10/24 05:53:54;;;;;;;54.42;33.28;;;;;;;17.84;78.85;101610.88;4997758;28;20591;-83
2022/10/24 05:56:21;;;;;;;62.85;34.50;;;;;;;17.96;78.36;101629.38;4995295;28;20547;-83
2022/10/24 05:58:48;;;;;;;58.90;36.28;;;;;;;17.69;78.29;101581.06;4995734;28;20054;-84
2022/10/24 06:01:15;;;;;;;57.22;33.35;;;;;;;16.97;78.77;101481.13;4997423;28;20046;-82
2022/10/24 06:03:42;;;;;;;54.65;31.83;;;;;;;17.53;78.80;101580.94;4995549;28;20635;-83
2022/10/24 06:06:09;;;;;;;57.85;30.92;;;;;;;17.49;78.76;101576.88;5007766;28;20046;-82
2022/10/24 06:08:37;;;;;;;62.55;33.63;;;;;;;17.44;78.64;101576.53;4981647;28;20201;-83
2022/10/24 06:11:09;;;;;;;57.15;34.72;;;;;;;17.84;78.69;101639.56;5004130;28;20157;-82
2022/10/24 06:13:36;;;;;;;59.25;34.92;;;;;;;17.83;78.70;101656.69;5001498;28;20152;-83
2022/10/24 06:16:10;;;;;;;62.53;34.15;;;;;;;17.70;78.70;101636.44;4997365;28;20761;-83
2022/10/24 06:18:38;;;;;;;56.45;33.72;;;;;;;17.64;78.61;101630.84;4996621;28;20049;-83
2022/10/24 06:21:10;;;;;;;51.30;32.65;;;;;;;17.71;78.89;101638.09;5001506;28;20091;-80
2022/10/24 06:23:38;;;;;;;63.78;33.60;;;;;;;17.64;78.73;101631.69;4963245;28;20057;-83
2022/10/24 06:26:10;;;;;;;57.53;35.55;;;;;;;17.39;78.94;101603.00;4980373;28;20161;-83
2022/10/24 06:28:37;;;;;;;67.70;34.45;;;;;;;17.53;78.75;101618.53;4979145;28;20472;-83
2022/10/24 06:31:04;;;;;;;68.13;37.00;;;;;;;17.68;78.75;101633.06;4959724;28;20575;-81
2022/10/24 06:33:31;;;;;;;70.32;38.17;;;;;;;17.68;78.79;101640.28;4977790;28;20446;-83
2022/10/24 06:36:04;;;;;;;75.03;38.88;;;;;;;17.75;78.67;101648.56;4963690;28;20458;-82
2022/10/24 06:38:31;;;;;;;70.50;38.75;;;;;;;17.49;78.46;101598.38;4975667;28;20054;-83
2022/10/24 06:40:58;;;;;;;70.18;39.42;;;;;;;17.75;78.72;101637.81;4957492;28;20320;-82
2022/10/24 06:43:29;;;;;;;79.15;42.08;;;;;;;17.62;79.00;101617.59;4960076;28;20391;-83
2022/10/24 06:45:56;;;;;;;78.35;40.97;;;;;;;17.82;79.13;101647.78;4962127;28;20050;-83
2022/10/24 06:48:25;;;;;;;84.25;42.67;;;;;;;17.82;79.06;101646.97;4974849;28;20488;-82
2022/10/24 06:50:52;;;;;;;83.93;44.28;;;;;;;17.75;79.11;101621.69;4959277;28;20268;-83
2022/10/24 06:53:18;;;;;;;82.60;45.20;;;;;;;17.69;79.22;101613.28;4956108;28;20054;-83
2022/10/24 06:55:46;;;;;;;85.18;44.10;;;;;;;17.99;78.68;101646.03;4969351;28;20591;-83
2022/10/24 06:58:13;;;;;;;87.70;46.55;;;;;;;17.92;78.83;101636.94;4968761;28;20156;-81
2022/10/24 07:00:39;;;;;;;85.03;43.40;;;;;;;17.83;78.78;101614.56;4976160;28;20085;-80
2022/10/24 07:03:06;;;;;;;88.97;43.67;;;;;;;18.09;78.65;101641.38;4961026;28;20057;-81
2022/10/24 07:05:36;;;;;;;82.70;43.00;;;;;;;17.69;78.08;101562.25;4977176;28;20143;-82
2022/10/24 07:08:03;;;;;;;77.72;41.75;;;;;;;18.12;78.28;101637.53;4960418;28;20060;-81
2022/10/24 07:10:30;;;;;;;89.32;43.75;;;;;;;17.80;78.31;101579.09;4975745;28;20549;-80
2022/10/24 07:12:56;;;;;;;85.30;44.20;;;;;;;17.99;78.68;101613.81;4976634;28;20528;-80
2022/10/24 07:15:23;;;;;;;95.53;47.17;;;;;;;18.19;78.44;101633.22;4974385;28;20046;-81
2022/10/24 07:17:50;;;;;;;95.07;47.72;;;;;;;18.13;78.34;101598.91;4978235;28;20145;-81
2022/10/24 07:20:17;;;;;;;90.85;48.95;;;;;;;18.10;78.45;101594.69;4975683;28;20137;-82
2022/10/24 07:22:44;;;;;;;89.07;54.05;;;;;;;18.25;78.58;101616.41;4974133;28;20081;-80
2022/10/24 07:25:11;;;;;;;91.45;50.70;;;;;;;18.14;78.42;101579.94;4976441;28;20375;-81
2022/10/24 07:27:39;;;;;;;85.28;49.08;;;;;;;18.43;78.17;101621.72;4987743;28;20125;-77
2022/10/24 07:30:08;;;;;;;97.90;48.92;;;;;;;18.45;78.17;101633.16;4993206;28;20052;-78
2022/10/24 07:32:35;;;;;;;89.15;49.05;;;;;;;18.20;78.43;101566.84;4994088;28;20061;-79
2022/10/24 07:35:02;;;;;;;89.45;45.78;;;;;;;18.45;78.01;101591.97;4976167;28;20624;-80
2022/10/24 07:37:29;;;;;;;79.95;43.47;;;;;;;18.20;78.28;101545.34;4977050;28;20487;-81
2022/10/24 07:39:56;;;;;;;82.32;41.17;;;;;;;18.54;78.05;101601.72;4950643;28;20291;-81
2022/10/24 07:42:25;;;;;;;81.05;39.83;;;;;;;18.64;77.76;101605.13;4970721;28;20740;-80
2022/10/24 07:44:52;;;;;;;79.32;40.38;;;;;;;18.66;78.01;101607.63;4950332;28;20054;-82
2022/10/24 07:47:18;;;;;;;73.53;39.33;;;;;;;18.76;77.84;101605.66;4963613;28;20058;-81
2022/10/24 07:49:47;;;;;;;70.43;36.90;;;;;;;18.59;76.83;101545.59;4977588;28;20248;-81
2022/10/24 07:52:13;;;;;;;65.88;37.60;;;;;;;18.92;76.49;101599.47;4977396;28;20050;-81
2022/10/24 07:54:40;;;;;;;70.38;41.15;;;;;;;18.85;76.63;101593.91;4977940;28;20049;-82
2022/10/24 07:57:07;;;;;;;68.35;37.20;;;;;;;18.91;76.59;101614.78;4978544;28;20531;-81
2022/10/24 07:59:34;;;;;;;67.68;36.95;;;;;;;18.54;77.22;101562.25;4963475;28;20500;-82
2022/10/24 08:02:13;;;;;;;68.70;37.13;;;;;;;18.58;77.01;101552.00;4979195;28;20256;-82
2022/10/24 08:04:40;;;;;;;;;;;;;;;18.98;77.35;101625.69;4980328;28;20137;-81
2022/10/24 08:07:11;;;;;;;64.20;36.42;;;;;;;19.03;77.09;101630.59;4962065;28;20633;-81
2022/10/24 08:09:41;;;;;;;59.22;34.15;;;;;;;19.12;76.77;101611.59;4978123;28;20080;-80
2022/10/24 08:12:08;;;;;;;67.90;37.05;;;;;;;19.24;76.58;101614.78;4980800;28;20536;-81
2022/10/24 08:14:37;;;;;;;57.08;34.58;;;;;;;19.31;77.01;101612.25;4978338;28;20041;-82
2022/10/24 08:17:04;;;;;;;60.78;35.92;;;;;;;19.39;76.64;101615.81;4975729;28;20587;-80
2022/10/24 08:19:32;;;;;;;60.78;35.90;;;;;;;19.43;76.24;101611.75;4978988;28;20058;-79
2022/10/24 08:22:00;;;;;;;66.72;37.25;;;;;;;19.26;76.65;101569.69;4993493;28;20046;-89
2022/10/24 08:24:27;;;;;;;53.03;32.30;;;;;;;19.64;76.24;101610.38;5008539;28;20060;-88
2022/10/24 08:26:55;;;;;;;54.85;28.67;;;;;;;19.75;74.90;101612.72;4996432;28;20310;-89
2022/10/24 08:29:24;;;;;;;34.13;21.17;;;;;;;19.91;74.13;101605.63;4978028;28;20543;-88
2022/10/24 08:31:57;;;;;;;35.40;17.77;;;;;;;19.54;72.19;101513.63;4988250;28;20061;-85
2022/10/24 08:34:28;;;;;;;32.20;18.45;;;;;;;20.39;70.76;101607.28;4975438;28;20449;-88
2022/10/24 08:36:56;;;;;;;34.38;19.73;;;;;;;20.42;70.25;101600.69;4991341;28;20058;-84
2022/10/24 08:39:25;;;;;;;26.40;16.35;;;;;;;20.61;69.87;101602.97;4989950;28;20057;-89
2022/10/24 08:41:57;;;;;;;31.65;17.10;;;;;;;20.52;69.40;101587.81;4984176;28;20564;-83
2022/10/24 08:44:36;;;;;;;20.40;13.35;;;;;;;20.76;68.84;101596.81;4978429;28;20050;-84
2022/10/24 08:47:14;;;;;;;26.10;13.57;;;;;;;20.94;67.81;101591.09;4978890;28;20208;-84
2022/10/24 08:49:53;;;;;;;21.20;13.05;;;;;;;20.67;67.51;101553.66;4977986;28;20120;-84
2022/10/24 08:52:41;;;;;;;27.00;14.48;;;;;;;20.96;67.25;101592.59;4979094;28;20104;-87
2022/10/24 08:55:22;;;;;;;25.02;13.57;;;;;;;20.86;68.32;101583.91;4981358;28;20064;-86
2022/10/24 08:58:16;;;;;;;34.92;19.05;;;;;;;20.84;69.05;101569.75;4978879;28;20598;-83
2022/10/24 09:00:47;;;;;;;36.38;19.58;;;;;;;20.95;69.24;101588.22;4986896;28;20516;-85
2022/10/24 09:03:37;;;;;;;33.17;19.80;;;;;;;20.96;70.01;101579.09;4990441;28;20472;-83
2022/10/24 09:06:27;;;;;;;44.50;20.45;;;;;;;20.91;70.03;101592.28;4959843;28;20179;-84
2022/10/24 09:08:58;;;;;;;41.45;21.83;;;;;;;20.89;70.24;101570.03;4962654;28;20295;-84
2022/10/24 09:11:36;;;;;;;41.63;22.70;;;;;;;21.10;70.53;101586.41;4983066;28;20105;-84
2022/10/24 09:14:27;;;;;;;45.95;25.50;;;;;;;20.82;71.46;101556.41;4984008;28;20689;-84
2022/10/24 09:17:09;;;;;;;51.15;24.33;;;;;;;20.86;72.16;101595.53;4980488;28;20053;-85
2022/10/24 09:19:37;;;;;;;41.53;25.80;;;;;;;20.87;72.21;101601.75;4978168;28;20596;-84
2022/10/24 09:22:06;;;;;;;46.70;26.05;;;;;;;20.53;72.22;101535.53;4977963;28;20061;-83
2022/10/24 09:24:40;;;;;;;39.53;25.80;;;;;;;20.58;72.28;101535.84;4980084;28;20418;-84
2022/10/24 09:27:14;;;;;;;43.90;24.48;;;;;;;20.83;72.45;101581.56;4982473;28;20061;-84
2022/10/24 09:29:41;;;;;;;46.60;24.35;;;;;;;20.89;72.70;101588.94;4982305;28;20101;-85
2022/10/24 09:32:22;;;;;;;41.95;25.67;;;;;;;20.80;72.69;101569.28;4982724;28;20057;-86
2022/10/24 09:34:50;;;;;;;36.83;23.75;;;;;;;20.53;72.20;101516.66;4982696;28;20053;-85
2022/10/24 09:37:35;;;;;;;36.22;23.45;;;;;;;20.60;71.44;101523.03;4975956;28;20042;-85
2022/10/24 09:40:26;;;;;;;32.03;20.75;;;;;;;20.97;71.45;101570.00;4961395;28;20374;-84
2022/10/24 09:42:55;;;;;;;38.40;19.30;;;;;;;20.92;71.95;101564.28;4958559;28;20085;-84
2022/10/24 09:45:36;;;;;;;35.50;20.10;;;;;;;20.87;71.54;101542.38;4962606;28;20189;-85
2022/10/24 09:48:27;;;;;;;41.22;20.83;;;;;;;20.98;71.88;101576.22;4978418;28;20648;-86
2022/10/24 09:51:00;;;;;;;30.92;17.05;;;;;;;21.07;70.36;101580.53;4960717;28;20585;-83
2022/10/24 09:53:29;;;;;;;29.73;14.47;;;;;;;20.55;69.17;101473.31;4943850;28;20050;-84
2022/10/24 09:56:06;;;;;;;30.63;14.52;;;;;;;21.20;69.42;101579.91;4958733;28;20046;-84
2022/10/24 09:58:34;;;;;;;27.58;15.65;;;;;;;21.13;69.62;101553.63;4959305;28;20073;-83
2022/10/24 10:01:04;;;;;;;40.97;17.13;;;;;;;21.38;69.53;101558.78;4963907;28;20064;-85
2022/10/24 10:03:34;;;;;;;26.65;14.15;;;;;;;21.58;69.00;101558.28;4988706;28;20116;-84
2022/10/24 10:06:13;;;;;;;25.35;13.23;;;;;;;22.16;66.36;101589.88;4991288;28;20149;-84
2022/10/24 10:08:40;;;;;;;31.63;13.95;;;;;;;22.23;65.05;101554.78;4959418;28;20530;-85
2022/10/24 10:11:11;;;;;;;30.77;13.98;;;;;;;22.22;64.48;101511.72;4960574;28;20045;-84
2022/10/24 10:13:52;;;;;;;33.17;13.73;;;;;;;22.87;63.14;101572.13;4958898;28;20662;-85
2022/10/24 10:16:31;;;;;;;22.13;11.73;;;;;;;23.24;61.44;101569.13;4976859;28;20091;-84
2022/10/24 10:19:12;;;;;;;25.15;12.18;;;;;;;23.51;58.91;101574.75;4976977;28;20050;-83
2022/10/24 10:21:56;;;;;;;20.92;10.95;;;;;;;23.45;57.68;101524.06;4990986;28;20053;-84
2022/10/24 10:24:44;;;;;;;21.85;12.55;;;;;;;23.80;58.39;101573.69;5012484;28;20050;-84
2022/10/24 10:27:31;;;;;;;27.80;11.38;;;;;;;23.67;57.10;101519.41;4998507;28;20066;-82
2022/10/24 10:30:11;;;;;;;27.80;11.13;;;;;;;24.05;57.13;101555.03;4975403;28;20530;-83
2022/10/24 10:33:28;;;;;;;37.30;10.93;;;;;;;24.12;55.28;101556.94;4980727;28;20141;-81
2022/10/24 10:36:03;;;;;;;27.02;11.27;;;;;;;24.28;55.60;101549.28;4966564;28;20557;-84
2022/10/24 10:38:39;;;;;;;19.73;10.63;;;;;;;24.20;54.87;101540.47;4982355;28;20668;-83
2022/10/24 10:41:24;;;;;;;25.50;10.57;;;;;;;24.23;55.27;101545.53;4987116;28;20144;-84
2022/10/24 10:44:05;;;;;;;17.65;10.15;;;;;;;24.23;55.29;101548.22;4959768;28;20699;-84
2022/10/24 10:47:05;;;;;;;22.23;10.38;;;;;;;24.44;54.06;101553.50;4960274;28;20201;-83
2022/10/24 10:49:40;;;;;;;22.80;9.95;;;;;;;24.41;53.88;101536.78;4976202;28;20576;-84
2022/10/24 10:52:12;;;;;;;39.08;11.35;;;;;;;24.42;53.74;101542.03;4975612;28;20053;-83
2022/10/24 10:55:02;;;;;;;16.15;10.10;;;;;;;24.07;53.88;101487.84;4978259;28;20046;-83
2022/10/24 10:57:37;;;;;;;19.63;11.15;;;;;;;24.15;54.26;101513.13;4975125;28;20132;-83
2022/10/24 11:00:09;;;;;;;16.42;9.27;;;;;;;24.30;53.97;101543.66;4977258;28;20077;-83
2022/10/24 11:02:42;;;;;;;25.77;10.35;;;;;;;23.93;53.80;101480.72;4976493;28;20080;-82
2022/10/24 11:05:25;;;;;;;19.05;10.77;;;;;;;24.19;54.46;101536.94;4983189;28;20061;-83
2022/10/24 11:08:01;;;;;;;16.70;9.85;;;;;;;24.21;54.37;101539.44;4977794;28;20064;-82
2022/10/24 11:10:43;;;;;;;24.20;10.18;;;;;;;23.90;53.93;101491.97;4983683;28;20050;-83
2022/10/24 11:13:19;;;;;;;26.73;10.77;;;;;;;24.07;54.54;101539.41;4961815;28;20046;-82
2022/10/24 11:15:51;;;;;;;20.65;10.32;;;;;;;23.56;55.29;101463.88;4974197;28;20057;-83
2022/10/24 11:18:25;;;;;;;23.05;10.75;;;;;;;23.46;54.76;101439.03;4978041;28;20395;-83
2022/10/24 11:21:05;;;;;;;28.98;10.55;;;;;;;24.04;54.58;101528.97;4982673;28;20061;-84
2022/10/24 11:23:54;;;;;;;24.17;10.65;;;;;;;24.06;54.88;101521.47;4983937;28;20050;-81
2022/10/24 11:26:36;;;;;;;15.77;8.98;;;;;;;23.15;54.37;101366.34;4982930;28;20530;-82
2022/10/24 11:29:17;;;;;;;24.67;10.10;;;;;;;24.09;54.71;101509.38;4949755;28;20407;-81
2022/10/24 11:31:57;;;;;;;23.30;11.20;;;;;;;24.02;54.75;101506.63;4943309;28;20482;-83